sensor_id;sensor_type;location;lat;lon;timestamp;pressure;altitude;pressure_sealevel;temperature;humidity
17254;BME280;32542;52.832;13.816;2023-01-31T00:01:45;101106.91;;;20.90;47.71
17254;BME280;32542;52.832;13.816;2023-01-31T00:04:49;101109.66;;;20.88;47.56
17254;BME280;32542;52.832;13.816;2023-01-31T00:07:52;101113.22;;;20.87;47.72
17254;BME280;32542;52.832;13.816;2023-01-31T00:10:58;101107.00;;;20.88;47.63
17254;BME280;32542;52.832;13.816;2023-01-31T00:14:03;101104.44;;;20.85;47.58
17254;BME280;32542;52.832;13.816;2023-01-31T00:17:06;101108.91;;;20.85;47.59
17254;BME280;32542;52.832;13.816;2023-01-31T00:20:10;101113.38;;;20.84;47.51
17254;BME280;32542;52.832;13.816;2023-01-31T00:23:14;101108.97;;;20.83;47.37
17254;BME280;32542;52.832;13.816;2023-01-31T00:26:20;101114.28;;;20.83;47.45
17254;BME280;32542;52.832;13.816;2023-01-31T00:29:23;101109.91;;;20.82;47.54
17254;BME280;32542;52.832;13.816;2023-01-31T00:32:26;101122.34;;;20.82;47.56
17254;BME280;32542;52.832;13.816;2023-01-31T00:35:29;101128.53;;;20.82;47.47
17254;BME280;32542;52.832;13.816;2023-01-31T00:38:33;101130.34;;;20.82;47.59
17254;BME280;32542;52.832;13.816;2023-01-31T00:41:38;101130.34;;;20.82;47.47
17254;BME280;32542;52.832;13.816;2023-01-31T00:44:41;101138.38;;;20.80;47.45
17254;BME280;32542;52.832;13.816;2023-01-31T00:47:44;101135.69;;;20.80;47.38
17254;BME280;32542;52.832;13.816;2023-01-31T00:50:47;101143.69;;;20.80;47.50
17254;BME280;32542;52.832;13.816;2023-01-31T00:53:50;101140.19;;;20.80;47.36
17254;BME280;32542;52.832;13.816;2023-01-31T00:56:54;101149.97;;;20.79;47.42
17254;BME280;32542;52.832;13.816;2023-01-31T00:59:57;101169.50;;;20.78;47.48
17254;BME280;32542;52.832;13.816;2023-01-31T01:03:01;101166.91;;;20.77;47.34
17254;BME280;32542;52.832;13.816;2023-01-31T01:06:05;101182.00;;;20.76;47.26
17254;BME280;32542;52.832;13.816;2023-01-31T01:09:08;101183.84;;;20.76;47.39
17254;BME280;32542;52.832;13.816;2023-01-31T01:12:12;101188.22;;;20.77;47.30
17254;BME280;32542;52.832;13.816;2023-01-31T01:15:15;101187.34;;;20.76;47.39
17254;BME280;32542;52.832;13.816;2023-01-31T01:18:19;101199.81;;;20.76;47.50
17254;BME280;32542;52.832;13.816;2023-01-31T01:21:23;101193.53;;;20.77;47.36
17254;BME280;32542;52.832;13.816;2023-01-31T01:24:26;101187.34;;;20.76;47.45
17254;BME280;32542;52.832;13.816;2023-01-31T01:27:31;101200.63;;;20.76;47.34
17254;BME280;32542;52.832;13.816;2023-01-31T01:30:36;101203.31;;;20.76;47.25
17254;BME280;32542;52.832;13.816;2023-01-31T01:33:40;101192.72;;;20.75;47.38
17254;BME280;32542;52.832;13.816;2023-01-31T01:36:42;101207.81;;;20.74;47.34
17254;BME280;32542;52.832;13.816;2023-01-31T01:39:50;101207.81;;;20.74;47.12
17254;BME280;32542;52.832;13.816;2023-01-31T01:42:55;101207.81;;;20.74;47.12
17254;BME280;32542;52.832;13.816;2023-01-31T01:45:58;101210.47;;;20.74;47.28
17254;BME280;32542;52.832;13.816;2023-01-31T01:49:03;101212.34;;;20.72;47.14
17254;BME280;32542;52.832;13.816;2023-01-31T01:52:08;101215.88;;;20.73;47.33
17254;BME280;32542;52.832;13.816;2023-01-31T01:55:21;101227.41;;;20.73;47.31
17254;BME280;32542;52.832;13.816;2023-01-31T01:58:31;101229.19;;;20.73;47.12
17254;BME280;32542;52.832;13.816;2023-01-31T02:01:36;101239.84;;;20.73;47.13
17254;BME280;32542;52.832;13.816;2023-01-31T02:04:45;101246.03;;;20.73;47.19
17254;BME280;32542;52.832;13.816;2023-01-31T02:07:50;101247.75;;;20.74;47.01
17254;BME280;32542;52.832;13.816;2023-01-31T02:10:57;101252.22;;;20.74;47.05
17254;BME280;32542;52.832;13.816;2023-01-31T02:14:06;101240.72;;;20.73;47.01
17254;BME280;32542;52.832;13.816;2023-01-31T02:17:11;101255.81;;;20.73;46.87
17254;BME280;32542;52.832;13.816;2023-01-31T02:20:43;101259.41;;;20.72;47.12
17254;BME280;32542;52.832;13.816;2023-01-31T02:28:10;101280.72;;;20.70;47.10
17254;BME280;32542;52.832;13.816;2023-01-31T02:31:50;101286.06;;;20.70;47.04
17254;BME280;32542;52.832;13.816;2023-01-31T02:35:03;101304.69;;;20.70;47.03
17254;BME280;32542;52.832;13.816;2023-01-31T02:38:18;101306.47;;;20.70;47.07
17254;BME280;32542;52.832;13.816;2023-01-31T02:41:28;101302.97;;;20.69;46.86
17254;BME280;32542;52.832;13.816;2023-01-31T02:44:40;101319.75;;;20.71;47.01
17254;BME280;32542;52.832;13.816;2023-01-31T02:48:11;101309.13;;;20.70;46.79
17254;BME280;32542;52.832;13.816;2023-01-31T02:51:30;101317.09;;;20.71;46.76
17254;BME280;32542;52.832;13.816;2023-01-31T02:54:35;101321.53;;;20.71;46.80
17254;BME280;32542;52.832;13.816;2023-01-31T02:57:54;101322.41;;;20.71;46.83
17254;BME280;32542;52.832;13.816;2023-01-31T03:01:01;101311.78;;;20.70;46.88
17254;BME280;32542;52.832;13.816;2023-01-31T03:04:07;101333.06;;;20.71;46.88
17254;BME280;32542;52.832;13.816;2023-01-31T03:07:16;101331.31;;;20.70;46.83
17254;BME280;32542;52.832;13.816;2023-01-31T03:10:39;101327.75;;;20.70;46.75
17254;BME280;32542;52.832;13.816;2023-01-31T03:13:53;101331.38;;;20.69;46.75
17254;BME280;32542;52.832;13.816;2023-01-31T03:17:05;101326.91;;;20.69;46.73
17254;BME280;32542;52.832;13.816;2023-01-31T03:20:35;101332.25;;;20.69;46.86
17254;BME280;32542;52.832;13.816;2023-01-31T03:23:48;101333.16;;;20.68;46.82
17254;BME280;32542;52.832;13.816;2023-01-31T03:26:54;101336.69;;;20.69;46.87
17254;BME280;32542;52.832;13.816;2023-01-31T03:30:02;101329.59;;;20.69;46.69
17254;BME280;32542;52.832;13.816;2023-01-31T03:33:11;101347.28;;;20.70;46.74
17254;BME280;32542;52.832;13.816;2023-01-31T03:36:22;101352.59;;;20.70;46.71
17254;BME280;32542;52.832;13.816;2023-01-31T03:39:37;101348.22;;;20.69;46.91
17254;BME280;32542;52.832;13.816;2023-01-31T03:45:56;101358.78;;;20.71;46.61
17254;BME280;32542;52.832;13.816;2023-01-31T03:49:03;101367.66;;;20.71;46.65
17254;BME280;32542;52.832;13.816;2023-01-31T03:52:10;101361.44;;;20.71;46.68
17254;BME280;32542;52.832;13.816;2023-01-31T03:55:19;101369.44;;;20.71;46.74
17254;BME280;32542;52.832;13.816;2023-01-31T03:58:28;101372.03;;;20.72;46.66
17254;BME280;32542;52.832;13.816;2023-01-31T04:01:36;101361.38;;;20.72;46.70
17254;BME280;32542;52.832;13.816;2023-01-31T04:04:44;101372.03;;;20.72;46.68
17254;BME280;32542;52.832;13.816;2023-01-31T04:07:49;101366.69;;;20.72;46.63
17254;BME280;32542;52.832;13.816;2023-01-31T04:10:58;101369.38;;;20.72;46.79
17254;BME280;32542;52.832;13.816;2023-01-31T04:14:02;101374.69;;;20.72;46.72
17254;BME280;32542;52.832;13.816;2023-01-31T04:17:04;101363.13;;;20.73;46.67
17254;BME280;32542;52.832;13.816;2023-01-31T04:20:09;101372.03;;;20.72;46.66
17254;BME280;32542;52.832;13.816;2023-01-31T04:23:13;101366.69;;;20.72;46.64
17254;BME280;32542;52.832;13.816;2023-01-31T04:26:17;101368.47;;;20.73;46.67
17254;BME280;32542;52.832;13.816;2023-01-31T04:29:20;101376.50;;;20.72;46.62
17254;BME280;32542;52.832;13.816;2023-01-31T04:32:23;101375.63;;;20.71;46.65
17254;BME280;32542;52.832;13.816;2023-01-31T04:35:27;101385.41;;;20.71;46.60
17254;BME280;32542;52.832;13.816;2023-01-31T04:38:29;101389.84;;;20.70;46.63
17254;BME280;32542;52.832;13.816;2023-01-31T04:41:34;101399.63;;;20.70;46.73
17254;BME280;32542;52.832;13.816;2023-01-31T04:44:37;101408.53;;;20.69;46.69
17254;BME280;32542;52.832;13.816;2023-01-31T04:47:39;101411.22;;;20.69;46.64
17254;BME280;32542;52.832;13.816;2023-01-31T04:50:42;101413.88;;;20.69;46.70
17254;BME280;32542;52.832;13.816;2023-01-31T04:53:45;101414.75;;;20.69;46.71
17254;BME280;32542;52.832;13.816;2023-01-31T04:56:50;101420.06;;;20.69;46.59
17254;BME280;32542;52.832;13.816;2023-01-31T04:59:52;101415.59;;;20.70;46.70
17254;BME280;32542;52.832;13.816;2023-01-31T05:02:55;101422.75;;;20.68;46.65
17254;BME280;32542;52.832;13.816;2023-01-31T05:05:58;101415.66;;;20.68;46.69
17254;BME280;32542;52.832;13.816;2023-01-31T05:09:01;101423.63;;;20.68;46.80
17254;BME280;32542;52.832;13.816;2023-01-31T05:12:06;101427.25;;;20.67;46.66
17254;BME280;32542;52.832;13.816;2023-01-31T05:15:10;101420.16;;;20.66;46.85
17254;BME280;32542;52.832;13.816;2023-01-31T05:18:13;101429.94;;;20.66;46.74
17254;BME280;32542;52.832;13.816;2023-01-31T05:21:16;101420.16;;;20.66;46.85
17254;BME280;32542;52.832;13.816;2023-01-31T05:24:19;101425.50;;;20.66;46.82
17254;BME280;32542;52.832;13.816;2023-01-31T05:27:24;101421.09;;;20.65;46.76
17254;BME280;32542;52.832;13.816;2023-01-31T05:30:27;101425.50;;;20.66;46.92
17254;BME280;32542;52.832;13.816;2023-01-31T05:33:30;101437.88;;;20.67;46.97
17254;BME280;32542;52.832;13.816;2023-01-31T05:36:33;101442.34;;;20.67;46.84
17254;BME280;32542;52.832;13.816;2023-01-31T05:39:36;101444.06;;;20.68;46.86
17254;BME280;32542;52.832;13.816;2023-01-31T05:42:41;101451.19;;;20.67;46.91
17254;BME280;32542;52.832;13.816;2023-01-31T05:45:44;101451.13;;;20.69;46.79
17254;BME280;32542;52.832;13.816;2023-01-31T05:48:47;101456.44;;;20.69;46.81
17254;BME280;32542;52.832;13.816;2023-01-31T05:51:49;101452.00;;;20.69;46.80
17254;BME280;32542;52.832;13.816;2023-01-31T05:54:52;101458.16;;;20.70;46.81
17254;BME280;32542;52.832;13.816;2023-01-31T05:57:57;101444.94;;;20.68;46.91
17254;BME280;32542;52.832;13.816;2023-01-31T06:01:02;101440.47;;;20.69;46.94
17254;BME280;32542;52.832;13.816;2023-01-31T06:04:05;101441.34;;;20.69;46.87
17254;BME280;32542;52.832;13.816;2023-01-31T06:07:08;101445.75;;;20.70;46.90
17254;BME280;32542;52.832;13.816;2023-01-31T06:10:10;101452.00;;;20.69;46.90
17254;BME280;32542;52.832;13.816;2023-01-31T06:13:15;101462.66;;;20.69;46.78
17254;BME280;32542;52.832;13.816;2023-01-31T06:16:18;101465.31;;;20.69;46.91
17254;BME280;32542;52.832;13.816;2023-01-31T06:19:21;101460.00;;;20.69;46.89
17254;BME280;32542;52.832;13.816;2023-01-31T06:22:26;101459.03;;;20.70;46.82
17254;BME280;32542;52.832;13.816;2023-01-31T06:25:28;101461.72;;;20.70;46.83
17254;BME280;32542;52.832;13.816;2023-01-31T06:28:35;101460.81;;;20.71;46.94
17254;BME280;32542;52.832;13.816;2023-01-31T06:31:38;101460.81;;;20.71;46.85
17254;BME280;32542;52.832;13.816;2023-01-31T06:34:41;101466.94;;;20.73;46.95
17254;BME280;32542;52.832;13.816;2023-01-31T06:37:44;101464.28;;;20.73;46.97
17254;BME280;32542;52.832;13.816;2023-01-31T06:40:47;101459.81;;;20.74;46.99
17254;BME280;32542;52.832;13.816;2023-01-31T06:43:51;101455.34;;;20.74;46.93
17254;BME280;32542;52.832;13.816;2023-01-31T06:46:54;101459.81;;;20.74;46.94
17254;BME280;32542;52.832;13.816;2023-01-31T06:49:57;101463.31;;;20.74;46.84
17254;BME280;32542;52.832;13.816;2023-01-31T06:53:00;101458.88;;;20.75;46.98
17254;BME280;32542;52.832;13.816;2023-01-31T06:56:04;101457.09;;;20.75;46.94
17254;BME280;32542;52.832;13.816;2023-01-31T06:59:08;101466.88;;;20.75;46.79
17254;BME280;32542;52.832;13.816;2023-01-31T07:02:11;101462.41;;;20.75;46.83
17254;BME280;32542;52.832;13.816;2023-01-31T07:05:14;101468.66;;;20.74;46.96
17254;BME280;32542;52.832;13.816;2023-01-31T07:08:17;101461.59;;;20.73;46.90
17254;BME280;32542;52.832;13.816;2023-01-31T07:11:20;101466.13;;;20.71;47.14
17254;BME280;32542;52.832;13.816;2023-01-31T07:14:24;101466.13;;;20.71;46.90
17254;BME280;32542;52.832;13.816;2023-01-31T07:17:27;101465.25;;;20.71;46.99
17254;BME280;32542;52.832;13.816;2023-01-31T07:20:31;101472.34;;;20.70;47.02
17254;BME280;32542;52.832;13.816;2023-01-31T07:23:34;101479.47;;;20.70;46.98
17254;BME280;32542;52.832;13.816;2023-01-31T07:26:37;101470.63;;;20.69;47.01
17254;BME280;32542;52.832;13.816;2023-01-31T07:29:41;101471.44;;;20.71;46.94
17254;BME280;32542;52.832;13.816;2023-01-31T07:32:45;101471.44;;;20.71;47.32
17254;BME280;32542;52.832;13.816;2023-01-31T07:35:48;101467.84;;;20.72;47.42
17254;BME280;32542;52.832;13.816;2023-01-31T07:38:52;101465.19;;;20.72;47.39
17254;BME280;32542;52.832;13.816;2023-01-31T07:41:56;101466.94;;;20.73;47.43
17254;BME280;32542;52.832;13.816;2023-01-31T07:45:00;101461.59;;;20.73;47.72
17254;BME280;32542;52.832;13.816;2023-01-31T07:48:23;101466.00;;;20.74;47.81
17254;BME280;32542;52.832;13.816;2023-01-31T07:51:26;101467.81;;;20.74;47.71
17254;BME280;32542;52.832;13.816;2023-01-31T07:54:29;101473.06;;;20.75;47.85
17254;BME280;32542;52.832;13.816;2023-01-31T07:57:32;101469.53;;;20.75;47.86
17254;BME280;32542;52.832;13.816;2023-01-31T08:00:37;101467.75;;;20.75;47.79
17254;BME280;32542;52.832;13.816;2023-01-31T08:03:57;101475.66;;;20.77;47.79
17254;BME280;32542;52.832;13.816;2023-01-31T08:07:19;101477.41;;;20.78;47.71
17254;BME280;32542;52.832;13.816;2023-01-31T08:10:21;101474.69;;;20.79;47.75
17254;BME280;32542;52.832;13.816;2023-01-31T08:13:24;101476.41;;;20.80;47.80
17254;BME280;32542;52.832;13.816;2023-01-31T08:16:29;101466.63;;;20.81;47.69
17254;BME280;32542;52.832;13.816;2023-01-31T08:19:33;101471.97;;;20.81;47.87
17254;BME280;32542;52.832;13.816;2023-01-31T08:22:36;101465.75;;;20.80;47.88
17254;BME280;32542;52.832;13.816;2023-01-31T08:25:39;101464.78;;;20.83;47.89
17254;BME280;32542;52.832;13.816;2023-01-31T08:28:43;101464.78;;;20.83;47.79
17254;BME280;32542;52.832;13.816;2023-01-31T08:31:48;101466.53;;;20.84;47.77
17254;BME280;32542;52.832;13.816;2023-01-31T08:34:52;101468.31;;;20.83;47.81
17254;BME280;32542;52.832;13.816;2023-01-31T08:37:55;101468.25;;;20.85;47.80
17254;BME280;32542;52.832;13.816;2023-01-31T08:41:18;101466.53;;;20.84;47.69
17254;BME280;32542;52.832;13.816;2023-01-31T08:44:21;101462.09;;;20.84;47.75
17254;BME280;32542;52.832;13.816;2023-01-31T08:47:25;101474.75;;;20.78;44.12
17254;BME280;32542;52.832;13.816;2023-01-31T08:50:30;101463.06;;;20.57;42.62
17254;BME280;32542;52.832;13.816;2023-01-31T08:53:36;101467.75;;;20.51;44.39
17254;BME280;32542;52.832;13.816;2023-01-31T08:56:39;101462.41;;;20.51;44.58
17254;BME280;32542;52.832;13.816;2023-01-31T08:59:41;101452.66;;;20.51;44.55
17254;BME280;32542;52.832;13.816;2023-01-31T09:02:51;101450.72;;;20.56;44.92
17254;BME280;32542;52.832;13.816;2023-01-31T09:05:57;101453.94;;;20.64;45.84
17254;BME280;32542;52.832;13.816;2023-01-31T09:09:00;101463.47;;;20.71;46.41
17254;BME280;32542;52.832;13.816;2023-01-31T09:12:04;101451.53;;;20.81;46.72
17254;BME280;32542;52.832;13.816;2023-01-31T09:15:08;101444.13;;;20.89;46.83
17254;BME280;32542;52.832;13.816;2023-01-31T09:18:14;101447.34;;;20.99;46.95
17254;BME280;32542;52.832;13.816;2023-01-31T09:21:19;101447.00;;;21.08;46.95
17254;BME280;32542;52.832;13.816;2023-01-31T09:24:22;101429.88;;;21.15;46.98
17254;BME280;32542;52.832;13.816;2023-01-31T09:27:26;101436.72;;;21.21;46.95
17254;BME280;32542;52.832;13.816;2023-01-31T09:30:29;101430.38;;;21.25;46.87
17254;BME280;32542;52.832;13.816;2023-01-31T09:33:34;101431.13;;;21.28;46.96
17254;BME280;32542;52.832;13.816;2023-01-31T09:36:37;101420.47;;;21.28;46.89
17254;BME280;32542;52.832;13.816;2023-01-31T09:39:40;101417.75;;;21.30;46.94
17254;BME280;32542;52.832;13.816;2023-01-31T09:42:44;101414.25;;;21.28;47.03
17254;BME280;32542;52.832;13.816;2023-01-31T09:45:50;101411.69;;;21.26;47.21
17254;BME280;32542;52.832;13.816;2023-01-31T09:48:58;101406.41;;;21.25;47.24
17254;BME280;32542;52.832;13.816;2023-01-31T09:52:08;101400.28;;;21.23;47.26
17254;BME280;32542;52.832;13.816;2023-01-31T09:55:15;101403.84;;;21.22;47.33
17254;BME280;32542;52.832;13.816;2023-01-31T09:58:25;101384.41;;;21.20;47.51
17254;BME280;32542;52.832;13.816;2023-01-31T10:01:37;101369.41;;;21.17;47.44
17254;BME280;32542;52.832;13.816;2023-01-31T10:05:02;101380.94;;;21.18;47.72
17254;BME280;32542;52.832;13.816;2023-01-31T10:08:12;101377.41;;;21.17;47.82
17254;BME280;32542;52.832;13.816;2023-01-31T10:11:27;101370.34;;;21.16;47.89
17254;BME280;32542;52.832;13.816;2023-01-31T10:14:33;101360.63;;;21.15;48.08
17254;BME280;32542;52.832;13.816;2023-01-31T10:17:40;101358.03;;;21.14;47.84
17254;BME280;32542;52.832;13.816;2023-01-31T10:20:49;101364.25;;;21.13;47.96
17254;BME280;32542;52.832;13.816;2023-01-31T10:23:57;101359.00;;;21.11;47.77
17254;BME280;32542;52.832;13.816;2023-01-31T10:27:06;101346.59;;;21.10;47.98
17254;BME280;32542;52.832;13.816;2023-01-31T10:30:17;101343.09;;;21.10;48.00
17254;BME280;32542;52.832;13.816;2023-01-31T10:33:27;101328.97;;;21.08;48.26
17254;BME280;32542;52.832;13.816;2023-01-31T10:36:37;101321.84;;;21.08;48.45
17254;BME280;32542;52.832;13.816;2023-01-31T10:39:45;101316.56;;;21.07;48.24
17254;BME280;32542;52.832;13.816;2023-01-31T10:42:51;101308.59;;;21.07;48.25
17254;BME280;32542;52.832;13.816;2023-01-31T10:45:58;101307.72;;;21.06;48.00
17254;BME280;32542;52.832;13.816;2023-01-31T10:49:01;101287.34;;;21.05;48.07
17254;BME280;32542;52.832;13.816;2023-01-31T10:52:17;101287.34;;;21.05;48.18
17254;BME280;32542;52.832;13.816;2023-01-31T10:55:46;101285.56;;;21.06;48.32
17254;BME280;32542;52.832;13.816;2023-01-31T10:58:51;101280.25;;;21.06;48.32
17254;BME280;32542;52.832;13.816;2023-01-31T11:01:54;101278.50;;;21.05;48.39
17254;BME280;32542;52.832;13.816;2023-01-31T11:04:58;101272.28;;;21.04;48.32
17254;BME280;32542;52.832;13.816;2023-01-31T11:08:16;101267.84;;;21.05;48.39
17254;BME280;32542;52.832;13.816;2023-01-31T11:11:22;101255.47;;;21.04;48.51
17254;BME280;32542;52.832;13.816;2023-01-31T11:14:26;101246.63;;;21.03;48.68
17254;BME280;32542;52.832;13.816;2023-01-31T11:17:33;101231.50;;;21.04;48.72
17254;BME280;32542;52.832;13.816;2023-01-31T11:20:44;101220.84;;;21.04;48.70
17254;BME280;32542;52.832;13.816;2023-01-31T11:23:50;101218.19;;;21.04;48.75
17254;BME280;32542;52.832;13.816;2023-01-31T11:26:56;101201.34;;;21.03;48.56
17254;BME280;32542;52.832;13.816;2023-01-31T11:30:01;101198.59;;;21.05;48.68
17254;BME280;32542;52.832;13.816;2023-01-31T11:33:06;101193.28;;;21.05;48.86
17254;BME280;32542;52.832;13.816;2023-01-31T11:36:11;101187.97;;;21.05;48.67
17254;BME280;32542;52.832;13.816;2023-01-31T11:39:25;101195.94;;;21.05;48.85
17254;BME280;32542;52.832;13.816;2023-01-31T11:42:28;101191.50;;;21.05;48.87
17254;BME280;32542;52.832;13.816;2023-01-31T11:45:32;101191.50;;;21.05;48.84
17254;BME280;32542;52.832;13.816;2023-01-31T11:48:40;101182.63;;;21.05;48.79
17254;BME280;32542;52.832;13.816;2023-01-31T11:51:43;101179.97;;;21.05;48.80
17254;BME280;32542;52.832;13.816;2023-01-31T11:54:50;101173.72;;;21.06;48.80
17254;BME280;32542;52.832;13.816;2023-01-31T11:57:57;101161.34;;;21.05;48.87
17254;BME280;32542;52.832;13.816;2023-01-31T12:01:06;101148.03;;;21.05;48.82
17254;BME280;32542;52.832;13.816;2023-01-31T12:04:14;101135.56;;;21.05;48.80
17254;BME280;32542;52.832;13.816;2023-01-31T12:07:23;101122.25;;;21.05;48.85
17254;BME280;32542;52.832;13.816;2023-01-31T12:10:31;101113.41;;;21.05;48.68
17254;BME280;32542;52.832;13.816;2023-01-31T12:13:45;101102.75;;;21.05;48.43
17254;BME280;32542;52.832;13.816;2023-01-31T12:16:48;101100.09;;;21.05;48.58
17254;BME280;32542;52.832;13.816;2023-01-31T12:20:03;101093.06;;;21.04;48.78
17254;BME280;32542;52.832;13.816;2023-01-31T12:23:34;101082.41;;;21.04;48.92
17254;BME280;32542;52.832;13.816;2023-01-31T12:26:46;101061.94;;;21.04;48.86
17254;BME280;32542;52.832;13.816;2023-01-31T12:30:02;101069.09;;;21.04;48.94
17254;BME280;32542;52.832;13.816;2023-01-31T12:33:21;101062.88;;;21.03;48.92
17254;BME280;32542;52.832;13.816;2023-01-31T12:36:45;101064.59;;;21.04;49.23
17254;BME280;32542;52.832;13.816;2023-01-31T12:40:00;101048.63;;;21.04;49.11
17254;BME280;32542;52.832;13.816;2023-01-31T12:43:38;101048.63;;;21.04;49.20
17254;BME280;32542;52.832;13.816;2023-01-31T12:46:55;101044.19;;;21.05;49.13
17254;BME280;32542;52.832;13.816;2023-01-31T12:50:31;101039.72;;;21.05;49.11
17254;BME280;32542;52.832;13.816;2023-01-31T12:53:46;101033.53;;;21.05;49.00
17254;BME280;32542;52.832;13.816;2023-01-31T12:57:00;101022.00;;;21.04;49.08
17254;BME280;32542;52.832;13.816;2023-01-31T13:00:25;101013.09;;;21.05;49.14
17254;BME280;32542;52.832;13.816;2023-01-31T13:07:07;101006.91;;;21.05;49.03
17254;BME280;32542;52.832;13.816;2023-01-31T13:10:26;100995.38;;;21.04;49.07
17254;BME280;32542;52.832;13.816;2023-01-31T13:13:36;100998.91;;;21.05;49.03
17254;BME280;32542;52.832;13.816;2023-01-31T13:16:43;101000.69;;;21.04;48.97
17254;BME280;32542;52.832;13.816;2023-01-31T13:19:49;100991.88;;;21.04;49.07
17254;BME280;32542;52.832;13.816;2023-01-31T13:22:56;100992.72;;;21.04;48.93
17254;BME280;32542;52.832;13.816;2023-01-31T13:26:06;100983.88;;;21.04;48.90
17254;BME280;32542;52.832;13.816;2023-01-31T13:29:13;100980.28;;;21.05;48.81
17254;BME280;32542;52.832;13.816;2023-01-31T13:32:26;100969.63;;;21.05;48.76
17254;BME280;32542;52.832;13.816;2023-01-31T13:35:33;100955.38;;;21.06;48.92
17254;BME280;32542;52.832;13.816;2023-01-31T13:38:40;100960.72;;;21.06;48.91
17254;BME280;32542;52.832;13.816;2023-01-31T13:41:43;100950.06;;;21.06;48.88
17254;BME280;32542;52.832;13.816;2023-01-31T13:44:47;100953.66;;;21.05;48.77
17254;BME280;32542;52.832;13.816;2023-01-31T13:47:56;100941.28;;;21.04;48.77
17254;BME280;32542;52.832;13.816;2023-01-31T13:51:05;100944.88;;;21.03;48.61
17254;BME280;32542;52.832;13.816;2023-01-31T13:54:15;100936.88;;;21.03;48.83
17254;BME280;32542;52.832;13.816;2023-01-31T13:57:24;100941.31;;;21.02;48.76
17254;BME280;32542;52.832;13.816;2023-01-31T14:00:37;100944.88;;;21.03;48.73
17254;BME280;32542;52.832;13.816;2023-01-31T14:07:23;100944.88;;;21.03;48.74
17254;BME280;32542;52.832;13.816;2023-01-31T14:10:27;100923.56;;;21.03;48.70
17254;BME280;32542;52.832;13.816;2023-01-31T14:13:42;100920.00;;;21.04;48.60
17254;BME280;32542;52.832;13.816;2023-01-31T14:16:46;100920.00;;;21.04;48.75
17254;BME280;32542;52.832;13.816;2023-01-31T14:20:04;100920.81;;;21.04;48.87
17254;BME280;32542;52.832;13.816;2023-01-31T14:23:29;100903.13;;;21.03;48.94
17254;BME280;32542;52.832;13.816;2023-01-31T14:26:34;100918.25;;;21.03;48.81
17254;BME280;32542;52.832;13.816;2023-01-31T14:29:56;100902.28;;;21.03;48.90
17254;BME280;32542;52.832;13.816;2023-01-31T14:33:25;100895.19;;;21.02;48.98
17254;BME280;32542;52.832;13.816;2023-01-31T14:36:47;100893.38;;;21.02;48.90
17254;BME280;32542;52.832;13.816;2023-01-31T14:40:10;100896.03;;;21.02;48.89
17254;BME280;32542;52.832;13.816;2023-01-31T14:46:58;100886.28;;;21.03;48.93
17254;BME280;32542;52.832;13.816;2023-01-31T14:50:30;100879.22;;;21.02;48.77
17254;BME280;32542;52.832;13.816;2023-01-31T14:54:01;100887.22;;;21.02;48.79
17254;BME280;32542;52.832;13.816;2023-01-31T14:57:16;100868.56;;;21.02;48.71
17254;BME280;32542;52.832;13.816;2023-01-31T15:00:22;100845.53;;;21.00;48.73
17254;BME280;32542;52.832;13.816;2023-01-31T15:03:29;100854.44;;;20.99;48.64
17254;BME280;32542;52.832;13.816;2023-01-31T15:06:35;100859.75;;;20.99;48.69
17254;BME280;32542;52.832;13.816;2023-01-31T15:09:41;100861.63;;;20.97;48.54
17254;BME280;32542;52.832;13.816;2023-01-31T15:12:56;100851.88;;;20.98;48.63
17254;BME280;32542;52.832;13.816;2023-01-31T15:16:02;100851.00;;;20.97;48.59
17254;BME280;32542;52.832;13.816;2023-01-31T15:19:11;100839.50;;;20.97;48.88
17254;BME280;32542;52.832;13.816;2023-01-31T15:22:16;100851.00;;;20.97;48.93
17254;BME280;32542;52.832;13.816;2023-01-31T15:25:25;100845.66;;;20.97;48.97
17254;BME280;32542;52.832;13.816;2023-01-31T15:28:35;100836.75;;;20.98;48.96
17254;BME280;32542;52.832;13.816;2023-01-31T15:31:42;100849.13;;;20.99;48.88
17254;BME280;32542;52.832;13.816;2023-01-31T15:34:51;100849.13;;;20.99;49.01
17254;BME280;32542;52.832;13.816;2023-01-31T15:37:58;100835.81;;;20.99;48.81
17254;BME280;32542;52.832;13.816;2023-01-31T15:41:17;100829.56;;;21.00;49.26
17254;BME280;32542;52.832;13.816;2023-01-31T15:44:25;100829.56;;;21.00;49.30
17254;BME280;32542;52.832;13.816;2023-01-31T15:47:29;100812.72;;;21.00;49.48
17254;BME280;32542;52.832;13.816;2023-01-31T15:50:34;100802.06;;;21.00;49.55
17254;BME280;32542;52.832;13.816;2023-01-31T15:53:37;100796.75;;;21.00;49.57
17254;BME280;32542;52.832;13.816;2023-01-31T15:56:40;100794.03;;;21.02;49.73
17254;BME280;32542;52.832;13.816;2023-01-31T15:59:46;100802.03;;;21.02;49.70
17254;BME280;32542;52.832;13.816;2023-01-31T16:02:49;100816.25;;;21.00;49.77
17254;BME280;32542;52.832;13.816;2023-01-31T16:06:01;100802.94;;;21.00;49.66
17254;BME280;32542;52.832;13.816;2023-01-31T16:09:06;100802.03;;;21.02;49.50
17254;BME280;32542;52.832;13.816;2023-01-31T16:12:12;100798.44;;;21.03;49.50
17254;BME280;32542;52.832;13.816;2023-01-31T16:15:19;100803.75;;;21.03;49.43
17254;BME280;32542;52.832;13.816;2023-01-31T16:18:24;100818.81;;;21.04;49.57
17254;BME280;32542;52.832;13.816;2023-01-31T16:21:30;100813.50;;;21.04;49.54
17254;BME280;32542;52.832;13.816;2023-01-31T16:24:33;100802.84;;;21.04;49.61
17254;BME280;32542;52.832;13.816;2023-01-31T16:27:37;100804.63;;;21.03;49.54